createdAt,value
2022-11-14T00:00:16.549Z,88.38500977
2022-11-14T00:01:17.051Z,88.48876953
2022-11-14T00:02:17.528Z,88.38500977
2022-11-14T00:03:18.396Z,88.38500977
2022-11-14T00:04:19.052Z,88.28735352
2022-11-14T00:05:20.376Z,88.28735352
2022-11-14T00:06:20.878Z,88.38500977
2022-11-14T00:07:21.490Z,88.48876953
2022-11-14T00:08:21.840Z,88.48876953
2022-11-14T00:09:22.791Z,88.5925293
2022-11-14T00:10:24.149Z,88.5925293
2022-11-14T00:11:24.666Z,88.53149414
2022-11-14T00:12:25.124Z,88.63525391
2022-11-14T00:13:25.754Z,88.73901367
2022-11-14T00:14:26.266Z,88.84277344
2022-11-14T00:15:26.860Z,88.9465332
2022-11-14T00:16:27.488Z,88.84277344
2022-11-14T00:17:28.007Z,88.73901367
2022-11-14T00:18:28.727Z,88.9465332
2022-11-14T00:19:28.847Z,89.05029297
2022-11-14T00:20:30.117Z,89.15405273
2022-11-14T00:21:30.716Z,89.25170898
2022-11-14T00:22:31.377Z,89.45922852
2022-11-14T00:23:31.858Z,89.56298828
2022-11-14T00:24:32.316Z,89.56298828
2022-11-14T00:25:32.738Z,89.45922852
2022-11-14T00:26:33.410Z,89.25170898
2022-11-14T00:27:34.900Z,89.15405273
2022-11-14T00:28:35.677Z,89.05029297
2022-11-14T00:29:35.997Z,89.05029297
2022-11-14T00:31:07.403Z,89.25170898
2022-11-14T00:32:08.187Z,89.35546875
2022-11-14T00:33:08.895Z,89.35546875
2022-11-14T00:34:09.711Z,89.77050781
2022-11-14T00:35:10.812Z,89.87426758
2022-11-14T00:36:11.295Z,89.66674805
2022-11-14T00:37:11.797Z,89.25170898
2022-11-14T00:38:12.447Z,89.15405273
2022-11-14T00:39:13.254Z,89.15405273
2022-11-14T00:40:14.313Z,88.9465332
2022-11-14T00:41:14.780Z,88.9465332
2022-11-14T00:42:15.235Z,89.05029297
2022-11-14T00:43:15.775Z,88.9465332
2022-11-14T00:44:16.364Z,88.9465332
2022-11-14T00:45:17.061Z,89.15405273
2022-11-14T00:46:17.505Z,88.9465332
2022-11-14T00:47:17.934Z,89.05029297
2022-11-14T00:48:18.458Z,88.84277344
2022-11-14T00:49:19.156Z,88.53149414
2022-11-14T00:50:20.397Z,88.22021484
2022-11-14T00:51:21.058Z,88.32397461
2022-11-14T00:52:21.502Z,88.42773438
2022-11-14T00:53:21.970Z,88.42773438
2022-11-14T00:54:22.747Z,88.63525391
2022-11-14T00:55:24.399Z,88.73901367
2022-11-14T00:56:25.049Z,89.05029297
2022-11-14T00:57:25.612Z,88.84277344
2022-11-14T00:58:26.116Z,88.73901367
2022-11-14T00:59:26.605Z,88.84277344
2022-11-14T01:00:28.006Z,88.73901367
2022-11-14T01:01:28.600Z,88.53149414
2022-11-14T01:02:29.264Z,88.42773438
2022-11-14T01:03:29.850Z,88.42773438
2022-11-14T01:04:30.342Z,88.42773438
2022-11-14T01:05:30.921Z,88.53149414
2022-11-14T01:06:31.446Z,88.73901367
2022-11-14T01:07:32.147Z,88.9465332
2022-11-14T01:08:32.787Z,89.15405273
2022-11-14T01:09:33.481Z,89.15405273
2022-11-14T01:10:34.814Z,89.35546875
2022-11-14T01:11:35.291Z,89.35546875
2022-11-14T01:12:35.945Z,89.05029297
2022-11-14T01:14:07.339Z,88.84277344
2022-11-14T01:15:08.073Z,88.84277344
2022-11-14T01:16:08.634Z,88.84277344
2022-11-14T01:17:10.022Z,88.9465332
2022-11-14T01:18:10.540Z,88.9465332
2022-11-14T01:19:11.279Z,88.9465332
2022-11-14T01:20:12.887Z,88.9465332
2022-11-14T01:21:14.429Z,88.9465332
2022-11-14T01:22:15.176Z,88.84277344
2022-11-14T01:23:15.915Z,88.84277344
2022-11-14T01:24:16.482Z,88.84277344
2022-11-14T01:25:17.254Z,88.84277344
2022-11-14T01:26:17.917Z,88.9465332
2022-11-14T01:27:18.535Z,89.05029297
2022-11-14T01:28:19.210Z,89.05029297
2022-11-14T01:29:19.643Z,89.05029297
2022-11-14T01:30:21.662Z,89.05029297
2022-11-14T01:31:22.592Z,89.15405273
2022-11-14T01:32:23.274Z,89.15405273
2022-11-14T01:33:24.618Z,88.9465332
2022-11-14T01:34:25.127Z,88.9465332
2022-11-14T01:35:26.307Z,88.9465332
2022-11-14T01:36:26.900Z,89.05029297
2022-11-14T01:37:27.573Z,88.9465332
2022-11-14T01:38:28.523Z,89.05029297
2022-11-14T01:39:28.891Z,89.05029297
2022-11-14T01:40:29.309Z,89.05029297
2022-11-14T01:41:29.940Z,89.15405273
2022-11-14T01:42:30.408Z,89.15405273
2022-11-14T01:43:30.823Z,89.15405273
2022-11-14T01:44:31.446Z,89.25170898
2022-11-14T01:45:31.882Z,89.45922852
2022-11-14T01:46:32.391Z,89.35546875
2022-11-14T01:47:33.032Z,89.35546875
2022-11-14T01:48:33.383Z,89.35546875
2022-11-14T01:49:33.838Z,89.05029297
2022-11-14T01:50:35.308Z,88.84277344
2022-11-14T01:51:36.198Z,88.80004883
2022-11-14T01:53:07.023Z,88.5925293
2022-11-14T01:54:07.682Z,88.28735352
2022-11-14T01:55:08.199Z,87.97607422
2022-11-14T01:56:08.728Z,87.97607422
2022-11-14T01:57:09.202Z,87.97607422
2022-11-14T01:58:09.696Z,87.87231445
2022-11-14T01:59:10.260Z,87.91503906
2022-11-14T02:00:10.800Z,88.11645508
2022-11-14T02:01:12.403Z,88.11645508
2022-11-14T02:02:12.882Z,88.01879883
2022-11-14T02:03:13.344Z,88.01879883
2022-11-14T02:04:15.379Z,87.91503906
2022-11-14T02:05:14.284Z,88.01879883
2022-11-14T02:06:14.743Z,88.11645508
2022-11-14T02:07:15.286Z,88.32397461
2022-11-14T02:08:15.679Z,88.42773438
2022-11-14T02:09:16.055Z,88.42773438
2022-11-14T02:10:17.295Z,88.53149414
2022-11-14T02:11:17.918Z,88.63525391
2022-11-14T02:12:19.129Z,88.63525391
2022-11-14T02:13:19.725Z,88.84277344
2022-11-14T02:14:20.291Z,88.73901367
2022-11-14T02:15:20.965Z,88.53149414
2022-11-14T02:16:21.425Z,88.63525391
2022-11-14T02:17:29.488Z,88.73901367
2022-11-14T02:18:22.868Z,89.05029297
2022-11-14T02:19:23.409Z,89.15405273
2022-11-14T02:20:24.043Z,89.25170898
2022-11-14T02:21:25.074Z,89.35546875
2022-11-14T02:22:25.732Z,89.45922852
2022-11-14T02:23:26.405Z,89.35546875
2022-11-14T02:24:26.923Z,89.35546875
2022-11-14T02:25:27.487Z,89.25170898
2022-11-14T02:26:27.937Z,89.15405273
2022-11-14T02:27:28.661Z,89.15405273
2022-11-14T02:28:29.271Z,89.25170898
2022-11-14T02:29:29.657Z,89.45922852
2022-11-14T02:30:30.295Z,89.45922852
2022-11-14T02:31:31.538Z,89.45922852
2022-11-14T02:32:45.103Z,89.35546875
2022-11-14T02:33:32.522Z,89.45922852
2022-11-14T02:34:33.091Z,89.56298828
2022-11-14T02:35:34.317Z,89.56298828
2022-11-14T02:36:34.891Z,89.35546875
2022-11-14T02:38:06.345Z,89.15405273
2022-11-14T02:39:06.725Z,88.90380859
2022-11-14T02:40:07.480Z,88.80004883
2022-11-14T02:41:08.841Z,88.90380859
2022-11-14T02:42:09.491Z,88.69628906
2022-11-14T02:43:10.079Z,88.48876953
2022-11-14T02:44:10.656Z,88.5925293
2022-11-14T02:45:11.225Z,88.5925293
2022-11-14T02:46:12.602Z,88.48876953
2022-11-14T02:47:13.261Z,88.48876953
2022-11-14T02:48:13.800Z,88.48876953
2022-11-14T02:49:14.283Z,88.38500977
2022-11-14T02:50:14.734Z,88.28735352
2022-11-14T02:51:15.780Z,88.38500977
2022-11-14T02:52:16.379Z,88.38500977
2022-11-14T02:53:17.038Z,88.28735352
2022-11-14T02:54:17.541Z,88.18359375
2022-11-14T02:55:18.003Z,88.18359375
2022-11-14T02:56:18.454Z,88.07983398
2022-11-14T02:57:18.973Z,88.18359375
2022-11-14T02:58:19.493Z,88.28735352
2022-11-14T02:59:19.870Z,88.5925293
2022-11-14T03:00:20.471Z,88.5925293
2022-11-14T03:01:22.023Z,88.48876953
2022-11-14T03:02:22.601Z,88.38500977
2022-11-14T03:03:23.162Z,88.28735352
2022-11-14T03:04:23.541Z,88.38500977
2022-11-14T03:05:24.013Z,88.18359375
2022-11-14T03:06:24.435Z,87.87231445
2022-11-14T03:07:25.029Z,87.76855469
2022-11-14T03:08:25.452Z,87.87231445
2022-11-14T03:09:25.983Z,87.87231445
2022-11-14T03:10:26.433Z,87.87231445
2022-11-14T03:11:26.934Z,87.66479492
2022-11-14T03:12:27.443Z,87.66479492
2022-11-14T03:13:27.982Z,87.76855469
2022-11-14T03:14:28.529Z,87.56103516
2022-11-14T03:15:29.158Z,87.76855469
2022-11-14T03:16:29.723Z,87.87231445
2022-11-14T03:17:30.187Z,88.07983398
2022-11-14T03:18:31.480Z,88.18359375
2022-11-14T03:19:31.309Z,88.28735352
2022-11-14T03:20:31.744Z,88.28735352
2022-11-14T03:21:32.797Z,88.48876953
2022-11-14T03:22:33.283Z,88.48876953
2022-11-14T03:23:33.759Z,88.38500977
2022-11-14T03:24:34.234Z,88.38500977
2022-11-14T03:25:35.778Z,88.48876953
2022-11-14T03:27:06.767Z,88.5925293
2022-11-14T03:28:07.196Z,88.69628906
2022-11-14T03:29:07.739Z,88.80004883
2022-11-14T03:30:08.205Z,88.90380859
2022-11-14T03:31:09.788Z,89.11132813
2022-11-14T03:32:10.377Z,89.21508789
2022-11-14T03:33:10.848Z,89.11132813
2022-11-14T03:34:11.475Z,89.11132813
2022-11-14T03:35:11.961Z,88.80004883
2022-11-14T03:36:12.988Z,88.80004883
2022-11-14T03:37:13.688Z,88.90380859
2022-11-14T03:38:14.092Z,88.90380859
2022-11-14T03:39:14.670Z,89.00756836
2022-11-14T03:40:15.181Z,88.80004883
2022-11-14T03:41:16.284Z,88.5925293
2022-11-14T03:42:16.908Z,88.5925293
2022-11-14T03:43:17.306Z,88.69628906
2022-11-14T03:44:18.074Z,88.80004883
2022-11-14T03:45:18.749Z,89.00756836
2022-11-14T03:46:19.243Z,89.11132813
2022-11-14T03:47:19.855Z,89.17236328
2022-11-14T03:48:20.321Z,88.96484375
2022-11-14T03:49:20.820Z,88.75732422
2022-11-14T03:50:21.271Z,88.75732422
2022-11-14T03:51:22.795Z,88.75732422
2022-11-14T03:52:23.354Z,88.5559082
2022-11-14T03:53:23.823Z,88.45214844
2022-11-14T03:54:24.358Z,88.34838867
2022-11-14T03:55:24.830Z,88.34838867
2022-11-14T03:56:25.339Z,88.34838867
2022-11-14T03:57:25.882Z,88.5559082
2022-11-14T03:58:26.390Z,88.34838867
2022-11-14T03:59:26.783Z,88.24462891
2022-11-14T04:00:27.368Z,88.34838867
2022-11-14T04:01:28.368Z,88.45214844
2022-11-14T04:02:28.787Z,88.45214844
2022-11-14T04:03:29.304Z,88.34838867
2022-11-14T04:04:29.739Z,88.2019043
2022-11-14T04:05:30.337Z,87.99438477
2022-11-14T04:06:30.792Z,87.89672852
2022-11-14T04:07:31.395Z,87.79296875
2022-11-14T04:08:32.284Z,87.89672852
2022-11-14T04:09:32.234Z,87.79296875
2022-11-14T04:10:33.288Z,87.68920898
2022-11-14T04:11:33.774Z,87.58544922
2022-11-14T04:12:35.452Z,87.68920898
2022-11-14T04:14:06.010Z,87.68920898
2022-11-14T04:15:06.471Z,87.79296875
2022-11-14T04:16:06.897Z,87.89672852
2022-11-14T04:17:07.363Z,87.89672852
2022-11-14T04:18:07.929Z,87.79296875
2022-11-14T04:19:08.238Z,87.99438477
2022-11-14T04:20:08.686Z,88.09814453
2022-11-14T04:21:09.107Z,88.2019043
2022-11-14T04:22:10.519Z,88.2019043
2022-11-14T04:23:10.964Z,88.2019043
2022-11-14T04:24:11.502Z,88.2019043
2022-11-14T04:25:11.840Z,88.09814453
2022-11-14T04:26:12.502Z,87.99438477
2022-11-14T04:27:12.977Z,87.79296875
2022-11-14T04:28:13.529Z,87.79296875
2022-11-14T04:29:13.870Z,87.58544922
2022-11-14T04:30:14.334Z,87.58544922
2022-11-14T04:31:14.780Z,87.82958984
2022-11-14T04:32:16.031Z,88.03710938
2022-11-14T04:33:16.509Z,88.34838867
2022-11-14T04:34:16.883Z,88.65356445
2022-11-14T04:35:17.327Z,88.86108398
2022-11-14T04:36:17.773Z,89.06860352
2022-11-14T04:37:18.293Z,89.17236328
2022-11-14T04:38:18.740Z,89.27612305
2022-11-14T04:39:19.147Z,89.37988281
2022-11-14T04:40:19.598Z,89.48364258
2022-11-14T04:41:20.043Z,89.58129883
2022-11-14T04:42:21.022Z,89.78881836
2022-11-14T04:43:21.512Z,89.78881836
2022-11-14T04:44:21.890Z,89.78881836
2022-11-14T04:45:22.696Z,90.0390625
2022-11-14T04:46:23.007Z,90.24658203
2022-11-14T04:47:23.453Z,90.3503418
2022-11-14T04:48:24.111Z,90.65551758
2022-11-14T04:49:24.363Z,90.75927734
2022-11-14T04:50:24.836Z,90.65551758
2022-11-14T04:51:25.272Z,90.75927734
2022-11-14T04:52:26.491Z,90.96679688
2022-11-14T04:53:26.977Z,91.07055664
2022-11-14T04:54:27.405Z,91.17431641
2022-11-14T04:55:27.835Z,91.27807617
2022-11-14T04:56:28.308Z,91.27807617
2022-11-14T04:57:28.756Z,91.38183594
2022-11-14T04:58:29.658Z,91.47949219
2022-11-14T04:59:29.636Z,91.58325195
2022-11-14T05:00:30.051Z,91.58325195
2022-11-14T05:01:30.591Z,91.79077148
2022-11-14T05:02:31.495Z,91.68701172
2022-11-14T05:03:32.071Z,91.47949219
2022-11-14T05:04:32.356Z,91.47949219
2022-11-14T05:05:32.795Z,91.47949219
2022-11-14T05:06:33.220Z,91.47949219
2022-11-14T05:07:34.189Z,91.58325195
2022-11-14T05:09:05.002Z,91.68701172
2022-11-14T05:10:05.310Z,91.79077148
2022-11-14T05:11:05.756Z,91.74804688
2022-11-14T05:12:06.786Z,91.85180664
2022-11-14T05:13:07.212Z,91.74804688
2022-11-14T05:14:07.691Z,91.64428711
2022-11-14T05:15:08.091Z,91.64428711
2022-11-14T05:16:08.556Z,91.64428711
2022-11-14T05:17:09.079Z,91.85180664
2022-11-14T05:18:09.511Z,91.95556641
2022-11-14T05:19:10.044Z,91.95556641
2022-11-14T05:20:10.574Z,91.95556641
2022-11-14T05:21:11.042Z,91.74804688
2022-11-14T05:22:12.292Z,91.64428711
2022-11-14T05:23:12.764Z,91.64428711
2022-11-14T05:24:13.249Z,91.74804688
2022-11-14T05:25:13.647Z,92.05932617
2022-11-14T05:26:14.107Z,92.16308594
2022-11-14T05:27:14.534Z,92.16308594
2022-11-14T05:28:15.507Z,92.05932617
2022-11-14T05:29:16.183Z,91.80908203
2022-11-14T05:30:16.383Z,91.70532227
2022-11-14T05:31:16.781Z,91.49780273
2022-11-14T05:32:17.780Z,91.40014648
2022-11-14T05:33:18.180Z,91.40014648
2022-11-14T05:34:18.661Z,91.49780273
2022-11-14T05:35:19.043Z,91.49780273
2022-11-14T05:36:19.513Z,91.29638672
2022-11-14T05:37:19.967Z,91.40014648
2022-11-14T05:38:20.426Z,91.49780273
2022-11-14T05:39:20.894Z,91.40014648
2022-11-14T05:40:21.325Z,91.54052734
2022-11-14T05:41:21.753Z,91.6015625
2022-11-14T05:42:22.206Z,91.70532227
2022-11-14T05:43:22.694Z,91.70532227
2022-11-14T05:44:23.178Z,91.70532227
2022-11-14T05:45:23.601Z,91.80908203
2022-11-14T05:46:24.049Z,91.70532227
2022-11-14T05:47:24.515Z,91.85180664
2022-11-14T05:48:24.933Z,92.12036133
2022-11-14T05:49:25.401Z,92.12036133
2022-11-14T05:50:25.829Z,92.01660156
2022-11-14T05:51:26.298Z,92.01660156
2022-11-14T05:52:27.292Z,92.12036133
2022-11-14T05:53:27.873Z,92.32788086
2022-11-14T05:54:28.490Z,92.52929688
2022-11-14T05:55:29.080Z,92.63305664
2022-11-14T05:56:29.595Z,92.52929688
2022-11-14T05:57:30.015Z,91.9128418
2022-11-14T05:58:31.349Z,91.70532227
2022-11-14T05:59:31.644Z,91.70532227
2022-11-14T06:00:38.013Z,91.80908203
2022-11-14T06:01:32.921Z,92.01660156
2022-11-14T06:03:04.499Z,92.01660156
2022-11-14T06:04:05.015Z,92.01660156
2022-11-14T06:05:05.616Z,92.12036133
2022-11-14T06:06:06.164Z,92.01660156
2022-11-14T06:07:06.819Z,92.01660156
2022-11-14T06:08:07.318Z,91.97387695
2022-11-14T06:09:07.740Z,91.87011719
2022-11-14T06:10:08.256Z,91.76635742
2022-11-14T06:11:08.768Z,91.66259766
2022-11-14T06:12:09.368Z,91.55883789
2022-11-14T06:13:10.602Z,91.46118164
2022-11-14T06:14:11.386Z,91.35742188
2022-11-14T06:15:11.554Z,91.25366211
2022-11-14T06:16:11.951Z,91.14990234
2022-11-14T06:17:12.537Z,91.14990234
2022-11-14T06:18:13.043Z,91.14990234
2022-11-14T06:19:13.573Z,91.14990234
2022-11-14T06:20:14.052Z,90.8996582
2022-11-14T06:21:14.484Z,90.59448242
2022-11-14T06:22:15.890Z,90.49072266
2022-11-14T06:23:20.644Z,90.63720703
2022-11-14T06:24:17.030Z,90.69213867
2022-11-14T06:25:17.654Z,90.59448242
2022-11-14T06:26:19.007Z,90.59448242
2022-11-14T06:27:19.420Z,90.49072266
2022-11-14T06:28:19.954Z,90.49072266
2022-11-14T06:29:20.496Z,90.38696289
2022-11-14T06:30:21.114Z,90.28320313
2022-11-14T06:31:22.861Z,90.28320313
2022-11-14T06:32:23.279Z,90.4296875
2022-11-14T06:33:23.787Z,90.4296875
2022-11-14T06:34:24.389Z,90.53344727
2022-11-14T06:35:25.011Z,90.63720703
2022-11-14T06:36:25.531Z,90.63720703
2022-11-14T06:37:28.440Z,90.53344727
2022-11-14T06:38:26.476Z,90.53344727
2022-11-14T06:39:27.036Z,90.83862305
2022-11-14T06:40:27.782Z,91.14990234
2022-11-14T06:41:28.231Z,91.35742188
2022-11-14T06:42:29.284Z,91.55883789
2022-11-14T06:43:29.713Z,91.87011719
2022-11-14T06:44:31.294Z,92.07763672
2022-11-14T06:45:30.893Z,92.28515625
2022-11-14T06:46:31.321Z,92.48657227
2022-11-14T06:47:31.856Z,92.44384766
2022-11-14T06:48:32.612Z,92.54760742
2022-11-14T06:50:03.200Z,92.54760742
2022-11-14T06:51:03.752Z,92.54760742
2022-11-14T06:52:04.258Z,92.54760742
2022-11-14T06:53:05.699Z,92.34008789
2022-11-14T06:54:06.151Z,92.24243164
2022-11-14T06:55:06.559Z,92.13867188
2022-11-14T06:56:06.974Z,92.03491211
2022-11-14T06:57:07.534Z,91.93115234
2022-11-14T06:58:08.083Z,91.6809082
2022-11-14T06:59:08.633Z,91.61987305
2022-11-14T07:00:09.109Z,91.57714844
2022-11-14T07:01:09.578Z,91.6809082
2022-11-14T07:02:10.025Z,91.78466797
2022-11-14T07:03:11.197Z,91.6809082
2022-11-14T07:04:11.654Z,91.6809082
2022-11-14T07:05:12.186Z,91.78466797
2022-11-14T07:06:12.622Z,91.88842773
2022-11-14T07:07:13.132Z,91.88842773
2022-11-14T07:08:18.417Z,91.88842773
2022-11-14T07:09:14.047Z,91.78466797
2022-11-14T07:10:14.606Z,91.6809082
2022-11-14T07:11:15.183Z,91.6809082
2022-11-14T07:12:15.603Z,91.88842773
2022-11-14T07:13:17.038Z,92.09594727
2022-11-14T07:14:17.552Z,92.09594727
2022-11-14T07:15:18.120Z,91.9921875
2022-11-14T07:16:18.782Z,91.88842773
2022-11-14T07:17:19.297Z,91.57714844
2022-11-14T07:18:19.755Z,91.37573242
2022-11-14T07:19:20.231Z,91.27197266
2022-11-14T07:20:20.776Z,91.37573242
2022-11-14T07:21:21.488Z,91.37573242
2022-11-14T07:22:21.962Z,91.16821289
2022-11-14T07:23:23.203Z,91.16821289
2022-11-14T07:24:23.428Z,91.16821289
2022-11-14T07:25:23.856Z,91.27197266
2022-11-14T07:26:24.613Z,91.27197266
2022-11-14T07:27:25.042Z,91.27197266
2022-11-14T07:28:25.540Z,91.27197266
2022-11-14T07:29:26.013Z,91.16821289
2022-11-14T07:30:26.517Z,91.16821289
2022-11-14T07:31:27.169Z,91.06445313
2022-11-14T07:32:27.581Z,91.16821289
2022-11-14T07:33:29.144Z,91.27197266
2022-11-14T07:34:29.606Z,91.22924805
2022-11-14T07:35:30.027Z,91.22924805
2022-11-14T07:36:30.572Z,91.12548828
2022-11-14T07:37:31.029Z,91.12548828
2022-11-14T07:38:32.142Z,90.5090332
2022-11-14T07:40:02.754Z,90.30151367
2022-11-14T07:41:03.224Z,90.19775391
2022-11-14T07:42:03.743Z,90.30151367
2022-11-14T07:43:04.790Z,90.5090332
2022-11-14T07:44:05.412Z,90.81420898
2022-11-14T07:45:05.958Z,91.02172852
2022-11-14T07:46:06.538Z,91.12548828
2022-11-14T07:47:07.126Z,91.12548828
2022-11-14T07:48:07.569Z,91.22924805
2022-11-14T07:49:08.196Z,91.12548828
2022-11-14T07:50:08.747Z,91.12548828
2022-11-14T07:51:09.333Z,91.02172852
2022-11-14T07:52:09.807Z,91.02172852
2022-11-14T07:53:10.784Z,91.12548828
2022-11-14T07:54:11.291Z,91.02172852
2022-11-14T07:55:11.863Z,91.02172852
2022-11-14T07:56:12.422Z,91.02172852
2022-11-14T07:57:13.116Z,91.12548828
2022-11-14T07:58:13.497Z,91.22924805
2022-11-14T07:59:13.967Z,91.33300781
2022-11-14T08:00:14.403Z,91.33300781
2022-11-14T08:01:15.817Z,91.33300781
2022-11-14T08:02:16.353Z,91.12548828
2022-11-14T08:03:17.790Z,90.91796875
2022-11-14T08:04:18.249Z,90.81420898
2022-11-14T08:05:18.685Z,90.81420898
2022-11-14T08:06:19.218Z,90.91796875
2022-11-14T08:07:19.932Z,90.87524414
2022-11-14T08:08:20.447Z,90.77758789
2022-11-14T08:09:20.989Z,90.67382813
2022-11-14T08:10:21.435Z,90.67382813
2022-11-14T08:11:34.529Z,90.67382813
2022-11-14T08:12:22.813Z,90.67382813
2022-11-14T08:13:33.030Z,90.87524414
2022-11-14T08:14:24.397Z,90.87524414
2022-11-14T08:15:24.919Z,90.87524414
2022-11-14T08:16:25.296Z,90.77758789
2022-11-14T08:17:26.004Z,90.67382813
2022-11-14T08:18:26.544Z,90.67382813
2022-11-14T08:19:26.857Z,90.77758789
2022-11-14T08:20:27.473Z,90.77758789
2022-11-14T08:21:27.898Z,90.67382813
2022-11-14T08:22:28.364Z,90.57006836
2022-11-14T08:23:29.311Z,90.57006836
2022-11-14T08:24:29.906Z,90.57006836
2022-11-14T08:25:30.406Z,90.57006836
2022-11-14T08:26:34.301Z,90.77758789
2022-11-14T08:28:02.001Z,90.77758789
2022-11-14T08:29:02.991Z,90.67382813
2022-11-14T08:30:03.582Z,90.63110352
2022-11-14T08:31:04.146Z,90.67382813
2022-11-14T08:32:04.722Z,90.73486328
2022-11-14T08:33:05.144Z,90.83251953
2022-11-14T08:34:06.523Z,90.9362793
2022-11-14T08:35:06.994Z,90.83251953
2022-11-14T08:36:08.118Z,90.73486328
2022-11-14T08:37:08.707Z,90.52734375
2022-11-14T08:38:09.240Z,90.42358398
2022-11-14T08:39:09.664Z,90.31982422
2022-11-14T08:40:10.105Z,90.42358398
2022-11-14T08:41:10.589Z,90.52734375
2022-11-14T08:42:11.762Z,90.52734375
2022-11-14T08:43:12.311Z,90.52734375
2022-11-14T08:44:12.810Z,90.31982422
2022-11-14T08:45:13.201Z,90.21606445
2022-11-14T08:46:13.629Z,90.01464844
2022-11-14T08:47:14.147Z,89.91088867
2022-11-14T08:48:14.590Z,89.91088867
2022-11-14T08:49:15.187Z,90.01464844
2022-11-14T08:50:15.605Z,90.1184082
2022-11-14T08:51:16.042Z,90.1184082
2022-11-14T08:52:17.082Z,90.1184082
2022-11-14T08:53:17.836Z,89.97192383
2022-11-14T08:54:18.360Z,89.97192383
2022-11-14T08:55:18.878Z,89.86816406
2022-11-14T08:56:19.328Z,89.86816406
2022-11-14T08:57:19.950Z,89.66064453
2022-11-14T08:58:20.346Z,89.56298828
2022-11-14T08:59:20.926Z,89.66064453
2022-11-14T09:00:21.468Z,89.7644043
2022-11-14T09:01:22.002Z,89.86816406
2022-11-14T09:02:22.625Z,89.97192383
2022-11-14T09:03:23.827Z,89.86816406
2022-11-14T09:04:24.357Z,89.86816406
2022-11-14T09:05:24.846Z,89.97192383
2022-11-14T09:06:26.060Z,90.07568359
2022-11-14T09:07:26.575Z,90.07568359
2022-11-14T09:08:27.095Z,89.97192383
2022-11-14T09:09:27.372Z,89.97192383
2022-11-14T09:10:27.939Z,89.97192383
2022-11-14T09:11:28.491Z,89.97192383
2022-11-14T09:12:28.999Z,89.82543945
2022-11-14T09:13:30.550Z,89.62402344
2022-11-14T09:15:01.443Z,89.62402344
2022-11-14T09:16:02.022Z,89.62402344
2022-11-14T09:17:05.864Z,89.72167969
2022-11-14T09:18:03.137Z,89.72167969
2022-11-14T09:19:03.534Z,89.62402344
2022-11-14T09:20:04.008Z,89.41650391
2022-11-14T09:21:04.627Z,89.41650391
2022-11-14T09:22:05.136Z,89.41650391
2022-11-14T09:23:06.362Z,89.41650391
2022-11-14T09:24:06.963Z,89.31274414
2022-11-14T09:25:08.075Z,89.41650391
2022-11-14T09:26:08.518Z,89.52026367
2022-11-14T09:27:09.056Z,89.62402344
2022-11-14T09:28:09.737Z,89.62402344
2022-11-14T09:29:10.243Z,89.72167969
2022-11-14T09:30:10.724Z,89.82543945
2022-11-14T09:31:11.226Z,89.92919922
2022-11-14T09:32:11.721Z,89.72167969
2022-11-14T09:33:12.352Z,89.31274414
2022-11-14T09:34:13.719Z,89.41650391
2022-11-14T09:35:14.260Z,89.62402344
2022-11-14T09:36:14.721Z,89.72167969
2022-11-14T09:37:15.251Z,89.92919922
2022-11-14T09:38:15.966Z,89.92919922
2022-11-14T09:39:16.255Z,89.72167969
2022-11-14T09:40:16.793Z,89.62402344
2022-11-14T09:41:17.329Z,89.41650391
2022-11-14T09:42:17.819Z,89.11132813
2022-11-14T09:43:18.319Z,89.11132813
2022-11-14T09:44:20.853Z,89.20898438
2022-11-14T09:45:20.135Z,89.31274414
2022-11-14T09:46:20.626Z,89.31274414
2022-11-14T09:47:21.274Z,89.27001953
2022-11-14T09:48:21.666Z,89.27001953
2022-11-14T09:49:22.090Z,89.27001953
2022-11-14T09:50:25.883Z,89.3737793
2022-11-14T09:51:23.231Z,89.17236328
2022-11-14T09:52:23.804Z,89.06860352
2022-11-14T09:53:25.090Z,89.17236328
2022-11-14T09:54:25.994Z,89.3737793
2022-11-14T09:55:26.460Z,89.3737793
2022-11-14T09:56:27.085Z,89.47753906
2022-11-14T09:57:27.672Z,89.47753906
2022-11-14T09:58:28.852Z,89.47753906
2022-11-14T09:59:28.746Z,89.47753906
2022-11-14T10:00:29.217Z,89.3737793
2022-11-14T10:01:29.699Z,89.3737793
2022-11-14T10:03:01.065Z,89.27001953
2022-11-14T10:04:07.028Z,89.17236328
2022-11-14T10:05:02.938Z,89.3737793
2022-11-14T10:06:03.409Z,89.47753906
2022-11-14T10:07:03.882Z,89.43481445
2022-11-14T10:08:04.437Z,89.43481445
2022-11-14T10:09:05.172Z,89.12963867
2022-11-14T10:10:05.681Z,88.81835938
2022-11-14T10:11:06.142Z,88.72070313
2022-11-14T10:12:06.587Z,88.20800781
2022-11-14T10:13:07.036Z,88.20800781
2022-11-14T10:14:08.340Z,88.34838867
2022-11-14T10:15:08.879Z,88.40942383
2022-11-14T10:16:09.353Z,88.61694336
2022-11-14T10:17:10.872Z,88.81835938
2022-11-14T10:18:10.290Z,89.02587891
2022-11-14T10:19:11.049Z,89.12963867
2022-11-14T10:20:11.382Z,88.92211914
2022-11-14T10:21:11.930Z,88.81835938
2022-11-14T10:22:12.435Z,88.81835938
2022-11-14T10:23:12.854Z,88.81835938
2022-11-14T10:24:14.301Z,89.02587891
2022-11-14T10:25:14.778Z,89.12963867
2022-11-14T10:26:15.276Z,89.12963867
2022-11-14T10:27:15.836Z,89.02587891
2022-11-14T10:28:16.273Z,89.12963867
2022-11-14T10:29:16.712Z,89.12963867
2022-11-14T10:30:17.155Z,89.12963867
2022-11-14T10:31:17.711Z,89.23339844
2022-11-14T10:32:18.231Z,89.33105469
2022-11-14T10:33:18.762Z,89.33105469
2022-11-14T10:34:19.790Z,89.33105469
2022-11-14T10:35:20.285Z,89.33105469
2022-11-14T10:36:20.702Z,89.33105469
2022-11-14T10:37:21.409Z,89.53857422
2022-11-14T10:38:22.001Z,89.74609375
2022-11-14T10:39:22.737Z,89.70336914
2022-11-14T10:40:23.213Z,89.90478516
2022-11-14T10:41:50.035Z,90.00854492
2022-11-14T10:42:24.433Z,89.80712891
2022-11-14T10:43:24.859Z,89.59960938
2022-11-14T10:44:26.058Z,89.49584961
2022-11-14T10:45:26.579Z,89.59960938
2022-11-14T10:46:28.022Z,89.59960938
2022-11-14T10:47:28.474Z,89.59960938
2022-11-14T10:48:29.233Z,89.70336914
2022-11-14T10:49:29.889Z,89.49584961
2022-11-14T10:51:00.732Z,89.59960938
2022-11-14T10:52:01.150Z,89.70336914
2022-11-14T10:53:01.644Z,89.70336914
2022-11-14T10:54:03.065Z,89.59960938
2022-11-14T10:55:03.567Z,89.59960938
2022-11-14T10:56:05.594Z,89.90478516
2022-11-14T10:57:05.600Z,89.96582031
2022-11-14T10:58:06.022Z,89.96582031
2022-11-14T10:59:06.436Z,89.96582031
2022-11-14T11:00:06.923Z,89.86816406
2022-11-14T11:01:07.525Z,89.96582031
2022-11-14T11:02:07.961Z,89.7644043